createdAt,value
2017-10-23T00:00:57.271Z,9.70
2017-10-23T00:03:25.652Z,9.70
2017-10-23T00:05:53.998Z,9.70
2017-10-23T00:08:21.621Z,9.70
2017-10-23T00:10:49.497Z,9.70
2017-10-23T00:13:17.075Z,9.70
2017-10-23T00:15:44.734Z,9.70
2017-10-23T00:18:12.303Z,9.70
2017-10-23T00:20:39.893Z,9.70
2017-10-23T00:23:08.245Z,9.60
2017-10-23T00:25:35.865Z,9.60
2017-10-23T00:28:04.235Z,9.60
2017-10-23T00:30:31.839Z,9.60
2017-10-23T00:32:59.402Z,9.60
2017-10-23T00:35:27.029Z,9.60
2017-10-23T00:37:54.872Z,9.60
2017-10-23T00:40:23.206Z,9.60
2017-10-23T00:42:50.798Z,9.50
2017-10-23T00:45:19.141Z,9.60
2017-10-23T00:47:46.733Z,9.50
2017-10-23T00:50:14.294Z,9.60
2017-10-23T00:52:41.889Z,9.50
2017-10-23T00:55:09.452Z,9.50
2017-10-23T00:57:38.150Z,9.50
2017-10-23T01:00:05.737Z,9.50
2017-10-23T01:02:33.327Z,9.40
2017-10-23T01:05:00.974Z,9.40
2017-10-23T01:07:28.558Z,9.30
2017-10-23T01:09:56.182Z,9.40
2017-10-23T01:12:23.789Z,9.30
2017-10-23T01:14:52.139Z,9.30
2017-10-23T01:17:19.751Z,9.30
2017-10-23T01:19:47.315Z,9.30
2017-10-23T01:22:14.921Z,9.40
2017-10-23T01:24:42.483Z,9.40
2017-10-23T01:27:10.714Z,9.40
2017-10-23T01:29:38.283Z,9.40
2017-10-23T01:32:05.886Z,9.40
2017-10-23T01:34:33.466Z,9.50
2017-10-23T01:37:01.056Z,9.50
2017-10-23T01:39:28.678Z,9.50
2017-10-23T01:41:56.247Z,9.50
2017-10-23T01:44:24.101Z,9.60
2017-10-23T01:46:51.650Z,9.60
2017-10-23T01:49:19.417Z,9.70
2017-10-23T01:51:47.000Z,9.70
2017-10-23T01:54:14.590Z,9.70
2017-10-23T01:56:42.146Z,9.70
2017-10-23T01:59:09.745Z,9.70
2017-10-23T02:01:37.337Z,9.70
2017-10-23T02:04:04.917Z,9.70
2017-10-23T02:06:33.259Z,9.80
2017-10-23T02:09:00.827Z,9.70
2017-10-23T02:11:28.399Z,9.80
2017-10-23T02:13:56.004Z,9.80
2017-10-23T02:16:23.586Z,9.80
2017-10-23T02:18:51.140Z,9.80
2017-10-23T02:21:18.731Z,9.80
2017-10-23T02:23:46.309Z,9.80
2017-10-23T02:26:14.674Z,9.80
2017-10-23T02:28:42.246Z,9.80
2017-10-23T02:31:09.851Z,9.80
2017-10-23T02:33:37.430Z,9.80
2017-10-23T02:36:05.010Z,9.80
2017-10-23T02:38:32.573Z,9.80
2017-10-23T02:41:00.367Z,9.80
2017-10-23T02:43:28.750Z,9.90
2017-10-23T02:45:57.098Z,9.90
2017-10-23T02:48:24.751Z,9.80
2017-10-23T02:50:52.354Z,9.80
2017-10-23T02:53:20.713Z,9.80
2017-10-23T02:55:48.287Z,9.80
2017-10-23T02:58:16.662Z,9.70
2017-10-23T03:00:44.239Z,9.70
2017-10-23T03:03:12.939Z,9.60
2017-10-23T03:05:40.549Z,9.50
2017-10-23T03:08:08.111Z,9.50
2017-10-23T03:10:35.703Z,9.40
2017-10-23T03:13:04.064Z,9.40
2017-10-23T03:15:31.641Z,9.40
2017-10-23T03:17:59.990Z,9.40
2017-10-23T03:20:27.579Z,9.40
2017-10-23T03:22:55.984Z,9.40
2017-10-23T03:25:23.589Z,9.40
2017-10-23T03:27:51.173Z,9.40
2017-10-23T03:30:18.723Z,9.40
2017-10-23T03:32:46.313Z,9.40
2017-10-23T03:35:14.650Z,9.40
2017-10-23T03:37:43.194Z,9.40
2017-10-23T03:40:10.773Z,9.50
2017-10-23T03:42:38.344Z,9.50
2017-10-23T03:45:06.273Z,9.50
2017-10-23T03:47:34.610Z,9.50
2017-10-23T03:50:02.203Z,9.50
2017-10-23T03:52:30.570Z,9.50
2017-10-23T03:54:58.914Z,9.50
2017-10-23T03:57:26.492Z,9.50
2017-10-23T03:59:54.066Z,9.50
2017-10-23T04:02:21.626Z,9.60
2017-10-23T04:04:49.199Z,9.60
2017-10-23T04:07:17.143Z,9.60
2017-10-23T04:09:44.715Z,9.60
2017-10-23T04:12:12.270Z,9.60
2017-10-23T04:14:39.825Z,9.60
2017-10-23T04:17:07.405Z,9.60
2017-10-23T04:19:34.972Z,9.70
2017-10-23T04:22:03.323Z,9.70
2017-10-23T04:24:30.917Z,9.70
2017-10-23T04:26:59.282Z,9.80
2017-10-23T04:29:28.251Z,9.80
2017-10-23T04:31:55.815Z,9.80
2017-10-23T04:34:23.736Z,9.80
2017-10-23T04:36:51.322Z,9.80
2017-10-23T04:39:19.187Z,9.80
2017-10-23T04:41:46.752Z,9.90
2017-10-23T04:44:14.338Z,9.90
2017-10-23T04:46:42.254Z,9.90
2017-10-23T04:49:10.577Z,9.90
2017-10-23T04:51:38.532Z,9.90
2017-10-23T04:54:06.122Z,9.90
2017-10-23T04:56:33.712Z,10.00
2017-10-23T04:59:02.049Z,10.00
2017-10-23T05:01:30.723Z,10.00
2017-10-23T05:03:58.320Z,10.00
2017-10-23T05:06:26.682Z,10.00
2017-10-23T05:08:54.250Z,10.00
2017-10-23T05:11:21.811Z,10.00
2017-10-23T05:13:49.409Z,10.00
2017-10-23T05:16:17.759Z,10.00
2017-10-23T05:18:45.346Z,10.00
2017-10-23T05:21:12.932Z,10.00
2017-10-23T05:23:40.508Z,10.00
2017-10-23T05:26:08.082Z,10.00
2017-10-23T05:28:36.465Z,10.00
2017-10-23T05:31:04.036Z,10.00
2017-10-23T05:33:31.588Z,10.00
2017-10-23T05:35:59.176Z,10.00
2017-10-23T05:38:27.639Z,9.90
2017-10-23T05:40:55.210Z,9.90
2017-10-23T05:43:23.542Z,9.90
2017-10-23T05:45:51.097Z,9.90
2017-10-23T05:48:18.714Z,9.90
2017-10-23T05:50:46.297Z,9.90
2017-10-23T05:53:14.630Z,10.00
2017-10-23T05:55:42.215Z,9.90
2017-10-23T05:58:09.827Z,10.00
2017-10-23T06:00:37.407Z,10.00
2017-10-23T06:03:05.242Z,10.00
2017-10-23T06:05:32.847Z,10.00
2017-10-23T06:08:00.417Z,10.00
2017-10-23T06:10:28.035Z,10.00
2017-10-23T06:12:55.581Z,10.00
2017-10-23T06:15:23.248Z,10.00
2017-10-23T06:17:50.814Z,10.00
2017-10-23T06:20:18.406Z,10.00
2017-10-23T06:22:45.993Z,10.00
2017-10-23T06:25:14.590Z,10.00
2017-10-23T06:27:42.962Z,10.00
2017-10-23T06:30:11.303Z,10.00
2017-10-23T06:32:38.989Z,10.00
2017-10-23T06:35:06.567Z,10.10
2017-10-23T06:37:34.906Z,10.10
2017-10-23T06:40:02.487Z,10.10
2017-10-23T06:42:30.093Z,10.10
2017-10-23T06:44:57.667Z,10.10
2017-10-23T06:47:25.227Z,10.10
2017-10-23T06:49:52.823Z,10.20
2017-10-23T06:52:20.370Z,10.10
2017-10-23T06:54:47.950Z,10.20
2017-10-23T06:57:15.514Z,10.20
2017-10-23T06:59:43.115Z,10.20
2017-10-23T07:02:10.689Z,10.30
2017-10-23T07:04:38.274Z,10.30
2017-10-23T07:07:05.841Z,10.30
2017-10-23T07:09:33.398Z,10.30
2017-10-23T07:12:01.012Z,10.30
2017-10-23T07:14:28.595Z,10.40
2017-10-23T07:16:56.171Z,10.40
2017-10-23T07:19:23.743Z,10.40
2017-10-23T07:21:51.304Z,10.50
2017-10-23T07:24:18.901Z,10.50
2017-10-23T07:26:47.254Z,10.50
2017-10-23T07:29:15.177Z,10.50
2017-10-23T07:31:42.754Z,10.50
2017-10-23T07:34:10.351Z,10.60
2017-10-23T07:36:37.937Z,10.60
2017-10-23T07:39:06.329Z,10.60
2017-10-23T07:41:34.655Z,10.60
2017-10-23T07:44:02.503Z,10.60
2017-10-23T07:46:30.099Z,10.50
2017-10-23T07:48:57.758Z,10.50
2017-10-23T07:51:25.363Z,10.50
2017-10-23T07:53:52.957Z,10.50
2017-10-23T07:56:20.538Z,10.50
2017-10-23T07:58:48.122Z,10.50
2017-10-23T08:01:16.495Z,10.60
2017-10-23T08:03:44.099Z,10.60
2017-10-23T08:06:11.714Z,10.70
2017-10-23T08:08:39.315Z,10.70
2017-10-23T08:11:06.919Z,10.80
2017-10-23T08:13:34.639Z,10.90
2017-10-23T08:16:02.261Z,10.90
2017-10-23T08:18:29.880Z,11.00
2017-10-23T08:20:57.449Z,11.00
2017-10-23T08:23:25.046Z,11.10
2017-10-23T08:25:52.662Z,11.10
2017-10-23T08:28:20.295Z,11.10
2017-10-23T08:30:48.699Z,11.30
2017-10-23T08:33:16.313Z,11.30
2017-10-23T08:35:44.030Z,11.40
2017-10-23T08:38:11.633Z,11.40
2017-10-23T08:40:39.250Z,11.50
2017-10-23T08:43:06.829Z,11.60
2017-10-23T08:45:34.424Z,11.60
2017-10-23T08:48:02.027Z,11.70
2017-10-23T08:50:29.608Z,11.70
2017-10-23T08:52:57.219Z,11.60
2017-10-23T08:55:24.807Z,11.70
2017-10-23T08:57:52.402Z,11.80
2017-10-23T09:00:21.962Z,11.80
2017-10-23T09:02:50.353Z,11.90
2017-10-23T09:05:18.248Z,11.90
2017-10-23T09:07:46.111Z,12.00
2017-10-23T09:10:13.689Z,11.90
2017-10-23T09:12:41.291Z,11.90
2017-10-23T09:15:09.834Z,12.10
2017-10-23T09:17:37.402Z,12.10
2017-10-23T09:20:05.007Z,12.30
2017-10-23T09:22:33.372Z,12.40
2017-10-23T09:25:01.806Z,12.50
2017-10-23T09:27:29.766Z,12.50
2017-10-23T09:29:57.354Z,12.60
2017-10-23T09:32:24.985Z,12.70
2017-10-23T09:34:52.590Z,12.70
2017-10-23T09:37:20.189Z,12.70
2017-10-23T09:39:47.769Z,13.10
2017-10-23T09:42:15.427Z,13.10
2017-10-23T09:44:43.077Z,13.20
2017-10-23T09:47:10.671Z,13.40
2017-10-23T09:49:38.284Z,13.60
2017-10-23T09:52:06.854Z,14.60
2017-10-23T09:54:34.455Z,14.50
2017-10-23T09:57:02.134Z,14.80
2017-10-23T09:59:29.743Z,14.70
2017-10-23T10:01:57.349Z,14.40
2017-10-23T10:04:24.955Z,14.40
2017-10-23T10:06:52.514Z,14.20
2017-10-23T10:09:20.082Z,14.00
2017-10-23T10:11:47.650Z,14.30
2017-10-23T10:14:15.246Z,14.70
2017-10-23T10:16:42.858Z,14.50
2017-10-23T10:19:10.455Z,14.50
2017-10-23T10:21:38.929Z,14.30
2017-10-23T10:24:07.298Z,14.50
2017-10-23T10:26:35.656Z,14.50
2017-10-23T10:29:03.574Z,14.50
2017-10-23T10:31:31.174Z,14.40
2017-10-23T10:33:59.579Z,14.40
2017-10-23T10:36:27.210Z,14.50
2017-10-23T10:38:54.789Z,14.30
2017-10-23T10:41:22.425Z,14.30
2017-10-23T10:43:50.004Z,14.30
2017-10-23T10:46:17.643Z,14.30
2017-10-23T10:48:45.223Z,14.00
2017-10-23T10:51:12.803Z,13.90
2017-10-23T10:53:40.417Z,13.80
2017-10-23T10:56:07.982Z,14.00
2017-10-23T10:58:35.570Z,14.30
2017-10-23T11:01:03.190Z,14.50
2017-10-23T11:03:30.787Z,14.80
2017-10-23T11:05:58.394Z,15.60
2017-10-23T11:08:26.766Z,16.00
2017-10-23T11:10:54.388Z,16.00
2017-10-23T11:13:21.969Z,16.60
2017-10-23T11:15:49.547Z,17.00
2017-10-23T11:18:17.134Z,16.50
2017-10-23T11:20:44.717Z,16.10
2017-10-23T11:23:12.315Z,15.50
2017-10-23T11:25:39.886Z,15.30
2017-10-23T11:28:07.475Z,15.30
2017-10-23T11:30:35.822Z,15.20
2017-10-23T11:33:03.485Z,15.20
2017-10-23T11:35:31.050Z,15.10
2017-10-23T11:37:58.656Z,14.90
2017-10-23T11:40:26.234Z,14.90
2017-10-23T11:42:53.835Z,14.90
2017-10-23T11:45:21.648Z,14.90
2017-10-23T11:47:49.250Z,14.90
2017-10-23T11:50:16.912Z,14.80
2017-10-23T11:52:44.502Z,14.80
2017-10-23T11:55:12.937Z,14.80
2017-10-23T11:57:40.512Z,14.80
2017-10-23T12:00:08.118Z,14.60
2017-10-23T12:02:36.466Z,14.50
2017-10-23T12:05:04.054Z,14.50
2017-10-23T12:07:32.448Z,14.40
2017-10-23T12:09:59.986Z,14.40
2017-10-23T12:12:28.408Z,14.40
2017-10-23T12:14:56.005Z,14.40
2017-10-23T12:17:23.626Z,14.30
2017-10-23T12:19:51.218Z,14.50
2017-10-23T12:22:18.842Z,14.50
2017-10-23T12:24:46.422Z,14.40
2017-10-23T12:27:14.011Z,14.40
2017-10-23T12:29:41.623Z,14.40
2017-10-23T12:32:09.247Z,14.30
2017-10-23T12:34:36.897Z,14.20
2017-10-23T12:37:04.494Z,14.10
2017-10-23T12:39:32.863Z,14.00
2017-10-23T12:42:01.214Z,14.10
2017-10-23T12:44:28.887Z,14.00
2017-10-23T12:46:56.807Z,14.10
2017-10-23T12:49:25.065Z,14.20
2017-10-23T12:51:53.578Z,14.40
2017-10-23T12:54:21.178Z,14.30
2017-10-23T12:56:48.807Z,14.40
2017-10-23T12:59:16.458Z,14.30
2017-10-23T13:01:44.076Z,14.20
2017-10-23T13:04:12.441Z,14.10
2017-10-23T13:06:40.067Z,14.00
2017-10-23T13:11:41.687Z,13.90
2017-10-23T13:14:10.051Z,13.70
2017-10-23T13:16:37.620Z,13.70
2017-10-23T13:19:05.303Z,13.60
2017-10-23T13:21:33.929Z,13.50
2017-10-23T13:24:01.530Z,13.50
2017-10-23T13:26:29.144Z,13.60
2017-10-23T13:28:56.748Z,13.70
2017-10-23T13:31:24.329Z,13.70
2017-10-23T13:33:52.788Z,13.70
2017-10-23T13:36:20.375Z,13.70
2017-10-23T13:38:47.972Z,13.60
2017-10-23T13:41:15.578Z,13.60
2017-10-23T13:43:43.157Z,13.60
2017-10-23T13:46:11.531Z,13.40
2017-10-23T13:48:39.893Z,13.30
2017-10-23T13:51:07.520Z,13.30
2017-10-23T13:53:35.355Z,13.30
2017-10-23T13:56:03.021Z,13.20
2017-10-23T13:58:30.599Z,13.10
2017-10-23T14:00:58.951Z,13.20
2017-10-23T14:03:27.319Z,13.20
2017-10-23T14:05:55.654Z,13.30
2017-10-23T14:08:23.396Z,13.30
2017-10-23T14:10:51.209Z,13.40
2017-10-23T14:13:18.856Z,13.40
2017-10-23T14:15:46.705Z,13.40
2017-10-23T14:18:14.941Z,13.40
2017-10-23T14:20:43.277Z,13.60
2017-10-23T14:23:10.866Z,13.60
2017-10-23T14:25:38.438Z,13.70
2017-10-23T14:28:06.848Z,13.70
2017-10-23T14:30:34.426Z,13.70
2017-10-23T14:33:02.023Z,13.70
2017-10-23T14:35:29.614Z,13.70
2017-10-23T14:37:57.962Z,13.70
2017-10-23T14:40:25.618Z,13.70
2017-10-23T14:42:53.191Z,13.60
2017-10-23T14:45:20.781Z,13.60
2017-10-23T14:47:49.124Z,13.40
2017-10-23T14:50:16.748Z,13.50
2017-10-23T14:52:44.310Z,13.40
2017-10-23T14:55:11.875Z,13.30
2017-10-23T14:57:39.687Z,13.30
2017-10-23T15:00:07.254Z,13.30
2017-10-23T15:02:35.596Z,13.20
2017-10-23T15:05:03.450Z,13.20
2017-10-23T15:07:31.050Z,13.20
2017-10-23T15:09:58.730Z,13.10
2017-10-23T15:15:01.130Z,13.00
2017-10-23T15:17:29.486Z,13.00
2017-10-23T15:19:57.069Z,13.00
2017-10-23T15:22:24.650Z,13.10
2017-10-23T15:24:52.572Z,13.10
2017-10-23T15:27:20.131Z,13.00
2017-10-23T15:29:47.737Z,13.00
2017-10-23T15:32:15.326Z,13.00
2017-10-23T15:34:42.936Z,13.00
2017-10-23T15:37:11.446Z,13.00
2017-10-23T15:39:39.056Z,12.90
2017-10-23T15:42:07.402Z,12.90
2017-10-23T15:44:34.989Z,12.90
2017-10-23T15:47:02.679Z,12.80
2017-10-23T15:49:31.086Z,12.80
2017-10-23T15:51:58.666Z,12.80
2017-10-23T15:54:26.293Z,12.80
2017-10-23T15:56:54.650Z,12.80
2017-10-23T15:59:22.231Z,12.70
2017-10-23T16:01:49.847Z,12.70
2017-10-23T16:04:17.441Z,12.70
2017-10-23T16:06:45.139Z,12.70
2017-10-23T16:09:12.791Z,12.70
2017-10-23T16:11:41.336Z,12.60
2017-10-23T16:14:08.928Z,12.60
2017-10-23T16:16:37.279Z,12.60
2017-10-23T16:19:04.950Z,12.60
2017-10-23T16:21:32.563Z,12.60
2017-10-23T16:24:00.216Z,12.60
2017-10-23T16:26:27.842Z,12.60
2017-10-23T16:28:55.405Z,12.50
2017-10-23T16:31:22.980Z,12.50
2017-10-23T16:33:51.591Z,12.50
2017-10-23T16:36:19.177Z,12.50
2017-10-23T16:38:46.871Z,12.50
2017-10-23T16:41:14.461Z,12.50
2017-10-23T16:43:42.066Z,12.50
2017-10-23T16:46:09.921Z,12.50
2017-10-23T16:48:37.858Z,12.60
2017-10-23T16:51:05.453Z,12.60
2017-10-23T16:53:33.104Z,12.50
2017-10-23T16:56:00.702Z,12.50
2017-10-23T16:58:28.331Z,12.50
2017-10-23T17:00:55.976Z,12.60
2017-10-23T17:03:23.581Z,12.60
2017-10-23T17:05:51.194Z,12.50
2017-10-23T17:08:20.422Z,12.50
2017-10-23T17:10:48.045Z,12.50
2017-10-23T17:13:16.417Z,12.50
2017-10-23T17:15:44.799Z,12.50
2017-10-23T17:18:13.193Z,12.40
2017-10-23T17:20:41.900Z,12.50
2017-10-23T17:23:09.501Z,12.40
2017-10-23T17:25:37.992Z,12.50
2017-10-23T17:28:05.617Z,12.50
2017-10-23T17:30:33.577Z,12.50
2017-10-23T17:33:01.178Z,12.50
2017-10-23T17:35:28.792Z,12.50
2017-10-23T17:37:56.403Z,12.50
2017-10-23T17:40:23.990Z,12.50
2017-10-23T17:42:52.362Z,12.50
2017-10-23T17:45:20.869Z,12.40
2017-10-23T17:47:48.446Z,12.40
2017-10-23T17:50:16.084Z,12.40
2017-10-23T17:52:43.646Z,12.40
2017-10-23T17:55:11.231Z,12.30
2017-10-23T17:57:38.965Z,12.30
2017-10-23T18:00:07.325Z,12.30
2017-10-23T18:02:34.928Z,12.30
2017-10-23T18:05:02.584Z,12.30
2017-10-23T18:07:31.008Z,12.30
2017-10-23T18:09:58.610Z,12.30
2017-10-23T18:12:27.765Z,12.30
2017-10-23T18:14:56.077Z,12.30
2017-10-23T18:17:24.468Z,12.20
2017-10-23T18:19:52.864Z,12.10
2017-10-23T18:22:21.200Z,12.10
2017-10-23T18:24:48.821Z,12.10
2017-10-23T18:27:17.689Z,11.90
2017-10-23T18:29:45.315Z,11.90
2017-10-23T18:32:12.986Z,11.90
2017-10-23T18:34:41.373Z,11.80
2017-10-23T18:37:09.060Z,11.80
2017-10-23T18:39:36.704Z,11.70
2017-10-23T18:42:04.384Z,11.70
2017-10-23T18:44:32.133Z,11.60
2017-10-23T18:47:00.570Z,11.50
2017-10-23T18:49:28.183Z,11.50
2017-10-23T18:51:56.603Z,11.30
2017-10-23T18:54:24.224Z,11.30
2017-10-23T18:56:52.552Z,11.30
2017-10-23T18:59:20.393Z,11.30
2017-10-23T19:14:48.197Z,11.30
2017-10-23T19:17:15.862Z,10.80
2017-10-23T19:19:43.461Z,10.80
2017-10-23T19:22:11.067Z,10.90
2017-10-23T19:24:38.747Z,10.80
2017-10-23T19:27:06.386Z,10.80
2017-10-23T19:29:34.011Z,10.80
2017-10-23T19:32:01.714Z,10.80
2017-10-23T19:34:29.360Z,10.80
2017-10-23T19:36:57.087Z,10.70
2017-10-23T19:39:25.528Z,10.70
2017-10-23T19:41:53.188Z,10.70
2017-10-23T19:44:20.826Z,10.80
2017-10-23T19:46:48.508Z,10.70
2017-10-23T19:49:16.122Z,10.70
2017-10-23T19:51:43.804Z,10.70
2017-10-23T19:54:11.434Z,10.70
2017-10-23T19:56:39.801Z,10.70
2017-10-23T19:59:07.457Z,10.70
2017-10-23T20:01:35.096Z,10.70
2017-10-23T20:04:02.761Z,10.60
2017-10-23T20:06:30.387Z,10.60
2017-10-23T20:08:58.030Z,10.50
2017-10-23T20:11:26.441Z,10.50
2017-10-23T20:13:54.043Z,10.50
2017-10-23T20:16:21.693Z,10.60
2017-10-23T20:18:49.390Z,10.50
2017-10-23T20:21:16.998Z,10.50
2017-10-23T20:23:44.658Z,10.50
2017-10-23T20:26:12.547Z,10.40
2017-10-23T20:28:41.859Z,10.40
2017-10-23T20:31:09.461Z,10.40
2017-10-23T20:33:38.047Z,10.30
2017-10-23T20:36:06.418Z,10.30
2017-10-23T20:38:34.829Z,10.30
2017-10-23T20:41:02.420Z,10.30
2017-10-23T20:43:30.075Z,10.30
2017-10-23T20:45:57.709Z,10.30
2017-10-23T20:48:25.474Z,10.30
2017-10-23T20:50:53.120Z,10.40
2017-10-23T20:53:21.510Z,10.50
2017-10-23T20:55:49.192Z,10.50
2017-10-23T20:58:16.817Z,10.60
2017-10-23T21:00:44.435Z,10.70
2017-10-23T21:03:12.033Z,10.80
2017-10-23T21:05:39.649Z,10.90
2017-10-23T21:08:07.487Z,10.80
2017-10-23T21:10:35.126Z,10.90
2017-10-23T21:13:03.509Z,10.90
2017-10-23T21:15:31.901Z,10.90
2017-10-23T21:18:00.259Z,10.90
2017-10-23T21:20:27.836Z,10.90
2017-10-23T21:22:56.292Z,10.90
2017-10-23T21:25:23.869Z,11.00
2017-10-23T21:27:51.455Z,11.00
2017-10-23T21:30:19.081Z,11.10
2017-10-23T21:32:46.809Z,11.20
2017-10-23T21:35:14.416Z,11.20
2017-10-23T21:37:42.033Z,11.30
2017-10-23T21:40:10.426Z,11.50
2017-10-23T21:42:38.059Z,11.40
2017-10-23T21:45:06.749Z,11.60
2017-10-23T21:47:34.350Z,11.50
2017-10-23T21:50:01.971Z,11.60
2017-10-23T21:52:29.533Z,11.60
2017-10-23T21:54:57.413Z,11.60
2017-10-23T22:07:10.134Z,11.60
2017-10-23T22:09:37.725Z,11.20
2017-10-23T22:12:06.411Z,11.20
2017-10-23T22:14:33.990Z,11.20
2017-10-23T22:17:01.657Z,11.30
2017-10-23T22:19:29.308Z,11.40
2017-10-23T22:21:56.899Z,11.40
2017-10-23T22:24:24.530Z,11.50
2017-10-23T22:26:52.132Z,11.60
2017-10-23T22:29:19.738Z,11.60
2017-10-23T22:31:48.080Z,11.70
2017-10-23T22:34:15.683Z,11.70
2017-10-23T22:36:43.717Z,11.70
2017-10-23T22:39:11.321Z,11.70
2017-10-23T22:41:38.902Z,11.80
2017-10-23T22:44:06.497Z,11.80
2017-10-23T22:46:34.862Z,11.80
2017-10-23T22:49:02.438Z,11.80
2017-10-23T22:51:30.043Z,11.80
2017-10-23T22:53:58.395Z,11.90
2017-10-23T22:56:26.048Z,11.80
2017-10-23T22:58:53.626Z,11.90
2017-10-23T23:01:22.026Z,11.90
2017-10-23T23:03:49.659Z,11.80
2017-10-23T23:06:17.242Z,11.90
2017-10-23T23:08:45.623Z,11.90
2017-10-23T23:11:13.991Z,11.90
2017-10-23T23:13:42.363Z,11.90
2017-10-23T23:16:09.943Z,11.90
2017-10-23T23:18:38.294Z,11.90
2017-10-23T23:21:05.939Z,11.80
2017-10-23T23:23:33.574Z,11.80
2017-10-23T23:26:01.162Z,11.70
2017-10-23T23:28:28.954Z,11.70
2017-10-23T23:30:56.874Z,11.70
2017-10-23T23:33:24.482Z,11.60
2017-10-23T23:35:52.412Z,11.60
2017-10-23T23:38:20.235Z,11.50
2017-10-23T23:40:48.615Z,11.50
2017-10-23T23:43:16.993Z,11.40
2017-10-23T23:45:45.434Z,11.40
2017-10-23T23:48:13.039Z,11.40
2017-10-23T23:50:41.427Z,11.30
2017-10-23T23:53:10.456Z,11.30
2017-10-23T23:55:38.055Z,11.30
2017-10-23T23:58:05.744Z,11.40
